Time;durP1;ratioP1;P1;durP2;ratioP2;P2;SDS_P1;SDS_P2;PMS_P1;PMS_P2;Temp;Humidity;BMP_temperature;BMP_pressure;BME280_temperature;BME280_humidity;BME280_pressure;Samples;Min_cycle;Max_cycle;Signal;HPM_P1;HPM_P2
2021/12/24 00:01:18;;;;;;;48.55;23.17;;;;;;;1.29;46.19;95240.09;5019854;28;20042;-78
2021/12/24 00:03:44;;;;;;;28.70;15.93;;;;;;;1.33;45.96;95233.69;5019830;28;20101;-78
2021/12/24 00:06:13;;;;;;;32.72;15.63;;;;;;;1.28;46.53;95228.25;5035465;23;20056;-78
2021/12/24 00:08:39;;;;;;;27.45;15.50;;;;;;;1.26;46.10;95214.81;5022115;28;20038;-78
2021/12/24 00:13:40;;;;;;;35.85;16.58;;;;;;;1.44;46.29;95216.19;5051449;23;20049;-78
2021/12/24 00:22:04;;;;;;;23.75;13.07;;;;;;;1.37;45.80;95201.66;5010997;28;20034;-77
2021/12/24 00:37:28;;;;;;;24.60;15.25;;;;;;;1.51;45.80;95229.16;4952755;28;20086;-78
2021/12/24 00:40:11;;;;;;;27.85;15.18;;;;;;;1.58;45.20;95219.03;4935822;29;20044;-77
2021/12/24 00:42:37;;;;;;;22.42;15.02;;;;;;;1.57;45.87;95222.56;4906781;29;20043;-78
2021/12/24 00:45:04;;;;;;;26.88;14.98;;;;;;;1.62;46.02;95215.16;4952881;29;20042;-78
2021/12/24 00:47:31;;;;;;;27.80;14.93;;;;;;;1.65;45.57;95207.16;4951834;29;20043;-77
2021/12/24 00:49:58;;;;;;;27.38;15.95;;;;;;;1.61;45.71;95209.22;4927078;29;20048;-78
2021/12/24 00:58:02;;;;;;;19.35;14.00;;;;;;;1.48;45.96;95189.28;5051832;28;20485;-78
2021/12/24 01:00:38;;;;;;;26.27;14.27;;;;;;;1.54;45.32;95177.56;5039639;28;20128;-78
2021/12/24 01:03:05;;;;;;;29.92;14.00;;;;;;;1.50;45.62;95176.31;5023926;28;20036;-77
2021/12/24 01:08:27;;;;;;;30.40;15.07;;;;;;;1.63;44.96;95179.13;4962842;28;20129;-77
2021/12/24 01:11:00;;;;;;;27.15;14.88;;;;;;;1.69;45.62;95182.78;4960790;28;20669;-77
2021/12/24 01:13:26;;;;;;;29.13;16.55;;;;;;;1.71;45.47;95168.03;4961044;28;20035;-77
2021/12/24 01:19:04;;;;;;;27.73;15.50;;;;;;;1.75;45.55;95175.19;4984418;28;20489;-77
2021/12/24 01:23:51;;;;;;;32.45;17.50;;;;;;;1.74;46.59;95158.22;4960461;28;20049;-77
2021/12/24 01:26:33;;;;;;;43.17;20.75;;;;;;;1.74;46.95;95165.13;4962842;28;20415;-77
2021/12/24 01:42:45;;;;;;;45.95;23.38;;;;;;;1.70;47.58;95144.16;4962370;28;20513;-78
2021/12/24 01:45:26;;;;;;;41.42;22.90;;;;;;;1.68;47.06;95143.53;4982694;28;20049;-79
2021/12/24 01:47:55;;;;;;;54.47;24.63;;;;;;;1.68;47.35;95147.84;4960312;28;20035;-77
2021/12/24 01:50:20;;;;;;;58.85;30.45;;;;;;;1.64;47.24;95165.34;4961217;28;20039;-77
2021/12/24 01:52:48;;;;;;;69.65;32.55;;;;;;;1.58;48.21;95155.75;4959529;28;20396;-77
2021/12/24 01:55:14;;;;;;;79.28;33.53;;;;;;;1.58;48.47;95142.94;4959922;28;20035;-78
2021/12/24 01:57:41;;;;;;;78.45;34.78;;;;;;;1.53;48.47;95141.84;4942531;28;20114;-77
2021/12/24 02:00:08;;;;;;;69.22;33.80;;;;;;;1.47;48.93;95141.56;4964157;28;20038;-78
2021/12/24 02:02:36;;;;;;;68.57;33.20;;;;;;;1.36;49.52;95128.31;4987061;28;20042;-78
2021/12/24 02:05:01;;;;;;;82.60;37.13;;;;;;;1.29;49.06;95122.25;4963632;28;20118;-78
2021/12/24 02:07:30;;;;;;;73.22;34.67;;;;;;;1.34;49.49;95132.81;4962064;28;20035;-77
2021/12/24 02:12:31;;;;;;;54.80;30.13;;;;;;;1.18;51.73;95113.97;5023905;23;20081;-77
2021/12/24 02:14:59;;;;;;;69.40;32.60;;;;;;;1.24;50.81;95115.06;5030713;28;20026;-77
2021/12/24 02:30:45;;;;;;;75.22;38.92;;;;;;;1.05;51.27;95094.97;5016045;28;20253;-77
2021/12/24 02:33:10;;;;;;;86.70;36.95;;;;;;;1.05;50.76;95077.84;5014630;28;20593;-78
2021/12/24 02:35:36;;;;;;;72.30;35.53;;;;;;;1.07;50.80;95068.25;5014599;28;20025;-78
2021/12/24 02:38:02;;;;;;;76.45;35.22;;;;;;;1.02;50.33;95073.06;5017416;28;20034;-78
2021/12/24 02:40:28;;;;;;;77.85;37.70;;;;;;;1.14;50.14;95066.63;4986504;28;20393;-77
2021/12/24 02:42:55;;;;;;;77.57;35.55;;;;;;;1.14;50.91;95066.63;5001323;28;20436;-77
2021/12/24 02:45:21;;;;;;;69.03;33.67;;;;;;;1.12;50.48;95065.97;5019943;28;20038;-76
2021/12/24 02:48:09;;;;;;;77.47;35.58;;;;;;;1.12;50.73;95058.28;5003787;28;20049;-78
2021/12/24 02:56:04;;;;;;;47.75;24.75;;;;;;;0.94;50.26;95032.13;5003954;28;20479;-78
2021/12/24 02:58:46;;;;;;;51.08;26.35;;;;;;;0.81;50.33;95042.09;5000952;28;20069;-78
2021/12/24 03:01:14;;;;;;;74.07;33.22;;;;;;;0.46;51.88;95039.00;5004699;28;20037;-77
2021/12/24 03:03:50;;;;;;;83.32;36.30;;;;;;;0.20;53.57;95048.66;5014790;28;20045;-77
2021/12/24 03:06:16;;;;;;;63.08;32.28;;;;;;;0.13;53.53;95052.81;5011906;28;20047;-78
2021/12/24 03:08:41;;;;;;;63.97;30.48;;;;;;;0.22;52.86;95046.75;5032344;28;20069;-77
2021/12/24 03:11:07;;;;;;;67.35;30.80;;;;;;;0.34;52.51;95055.69;5031930;28;20489;-77
2021/12/24 03:13:32;;;;;;;77.50;33.53;;;;;;;0.33;52.92;95038.75;5012955;28;20048;-77
2021/12/24 03:15:59;;;;;;;70.93;32.90;;;;;;;0.38;52.76;95023.69;5016047;28;20034;-78
2021/12/24 03:18:28;;;;;;;60.38;30.50;;;;;;;0.38;52.40;95036.47;5034803;28;20532;-78
2021/12/24 03:21:02;;;;;;;49.95;25.13;;;;;;;0.37;52.20;95040.00;5014545;28;20041;-77
2021/12/24 03:26:14;;;;;;;63.42;29.27;;;;;;;0.37;52.54;95042.56;4993151;28;20130;-77
2021/12/24 03:28:40;;;;;;;73.90;34.45;;;;;;;0.42;52.11;95042.06;4996764;28;20041;-78
2021/12/24 03:31:08;;;;;;;129.05;59.35;;;;;;;0.38;53.47;95036.47;5032464;28;20041;-77
2021/12/24 03:33:34;;;;;;;135.25;62.33;;;;;;;0.40;53.15;95034.56;5032845;28;20056;-77
2021/12/24 03:36:03;;;;;;;108.20;54.00;;;;;;;0.39;53.01;95032.97;4999021;28;20045;-77
2021/12/24 03:38:29;;;;;;;106.05;51.65;;;;;;;0.37;53.32;95029.78;5030063;28;20037;-77
2021/12/24 03:40:54;;;;;;;118.32;58.08;;;;;;;0.38;53.33;95035.69;5033321;28;20037;-78
2021/12/24 03:43:19;;;;;;;143.57;68.10;;;;;;;0.36;53.10;95028.19;5035358;28;20033;-78
2021/12/24 03:45:59;;;;;;;94.55;46.30;;;;;;;0.28;52.59;95020.50;5036157;28;20060;-78
2021/12/24 03:48:43;;;;;;;111.43;52.75;;;;;;;0.34;52.48;95019.88;5033322;28;20497;-78
2021/12/24 03:56:28;;;;;;;88.68;42.40;;;;;;;0.44;52.48;95015.34;5040702;23;20056;-78
2021/12/24 03:58:53;;;;;;;122.13;60.10;;;;;;;0.46;52.48;95010.06;5038085;28;20080;-78
2021/12/24 04:01:19;;;;;;;59.28;29.90;;;;;;;0.44;51.76;94999.22;5037804;28;20041;-77
2021/12/24 04:03:44;;;;;;;71.05;33.50;;;;;;;0.47;52.32;94993.75;5001375;28;20037;-77
2021/12/24 04:06:10;;;;;;;61.90;30.92;;;;;;;0.46;51.98;94998.06;5002488;28;20029;-77
2021/12/24 04:08:35;;;;;;;52.42;26.42;;;;;;;0.21;52.58;95004.22;5017276;28;20052;-77
2021/12/24 04:11:00;;;;;;;47.92;25.98;;;;;;;0.21;52.54;95011.91;5037045;28;20033;-77
2021/12/24 04:13:26;;;;;;;46.90;24.70;;;;;;;0.30;52.32;95001.47;5038412;28;20041;-77
2021/12/24 04:15:54;;;;;;;57.42;28.67;;;;;;;0.25;53.11;94993.50;5004216;28;20516;-77
2021/12/24 04:26:22;;;;;;;51.65;28.63;;;;;;;0.44;52.20;95009.44;5032669;28;20389;-75
2021/12/24 04:28:47;;;;;;;73.18;35.78;;;;;;;0.44;52.90;95006.88;5003565;28;20489;-76
2021/12/24 04:33:47;;;;;;;70.03;38.13;;;;;;;0.46;53.06;95005.75;5080046;22;20048;-77
2021/12/24 05:03:36;;;;;;;58.83;26.05;;;;;;;0.30;53.52;95018.59;5052651;28;20443;-78
2021/12/24 05:06:28;;;;;;;48.33;25.60;;;;;;;0.36;53.35;95017.94;5029956;28;20497;-77
2021/12/24 05:08:56;;;;;;;52.47;28.98;;;;;;;0.29;53.68;95002.44;5049791;28;20044;-77
2021/12/24 05:11:22;;;;;;;56.15;30.75;;;;;;;0.32;53.51;95006.44;5045910;28;20026;-77
2021/12/24 05:13:51;;;;;;;52.80;28.25;;;;;;;0.47;53.74;94993.75;5048926;28;20492;-77
2021/12/24 05:16:36;;;;;;;60.55;31.77;;;;;;;0.44;53.59;95017.91;5065611;28;20037;-77
2021/12/24 05:19:06;;;;;;;118.75;59.38;;;;;;;0.45;54.16;95021.28;5028739;28;20128;-77
2021/12/24 05:21:36;;;;;;;140.60;65.00;;;;;;;0.46;53.93;95030.53;5044630;28;20024;-77
2021/12/24 05:24:15;;;;;;;148.45;71.75;;;;;;;0.48;53.53;95011.50;5042083;28;20046;-77
2021/12/24 05:26:41;;;;;;;143.30;67.22;;;;;;;0.49;53.80;95013.13;5038838;28;20030;-77
2021/12/24 05:29:12;;;;;;;153.15;73.55;;;;;;;0.39;53.64;95020.19;5037545;28;20394;-76
2021/12/24 05:31:38;;;;;;;149.85;72.82;;;;;;;0.35;54.98;95013.78;5041507;28;20025;-76
2021/12/24 05:34:03;;;;;;;150.73;71.55;;;;;;;0.38;53.84;95031.38;5040606;28;20109;-76
2021/12/24 05:36:28;;;;;;;144.23;64.70;;;;;;;0.29;54.65;95017.00;5063049;23;20041;-76
2021/12/24 05:39:04;;;;;;;159.07;66.18;;;;;;;0.42;54.40;95012.16;5051235;28;20511;-76
2021/12/24 05:41:29;;;;;;;139.23;63.15;;;;;;;0.38;53.62;95012.66;5051305;28;20108;-76
2021/12/24 05:43:55;;;;;;;188.23;84.72;;;;;;;0.43;54.36;94992.50;5052194;28;20608;-76
2021/12/24 05:46:21;;;;;;;111.93;52.95;;;;;;;0.39;54.23;95017.63;5052253;28;20037;-76
2021/12/24 05:48:48;;;;;;;185.68;88.72;;;;;;;0.35;54.26;94995.88;5052356;28;20549;-76
2021/12/24 05:51:14;;;;;;;314.77;134.57;;;;;;;0.38;54.47;94982.78;5052371;28;20417;-76
2021/12/24 05:53:39;;;;;;;217.88;103.57;;;;;;;0.28;53.93;94992.38;5052624;28;20044;-77
2021/12/24 05:56:07;;;;;;;124.88;63.05;;;;;;;0.30;54.36;94995.56;5034632;28;20476;-77
2021/12/24 05:58:33;;;;;;;128.18;61.90;;;;;;;0.24;54.59;94975.78;5051473;28;20090;-77
2021/12/24 06:00:58;;;;;;;139.70;70.93;;;;;;;0.28;54.57;94972.72;5052338;28;20044;-77
2021/12/24 06:03:24;;;;;;;134.85;69.97;;;;;;;0.39;54.37;94984.38;5017313;28;20028;-76
2021/12/24 06:05:49;;;;;;;181.85;89.43;;;;;;;0.36;54.56;94950.66;5032750;28;20852;-76
2021/12/24 06:08:15;;;;;;;235.70;119.55;;;;;;;0.47;54.35;94983.53;5018657;28;20465;-77
2021/12/24 06:10:42;;;;;;;240.25;125.30;;;;;;;0.51;54.53;94975.38;5032108;28;20516;-77
2021/12/24 06:13:08;;;;;;;319.65;165.90;;;;;;;0.55;54.21;94975.84;5034685;28;20041;-82
2021/12/24 06:15:41;;;;;;;232.27;114.93;;;;;;;0.64;53.84;94986.81;5023491;28;20075;-78
2021/12/24 06:18:12;;;;;;;140.57;65.25;;;;;;;0.56;53.75;94983.34;5067741;28;20025;-78
2021/12/24 06:20:39;;;;;;;142.43;65.43;;;;;;;0.70;53.88;94992.09;5049533;28;20063;-79
2021/12/24 06:23:07;;;;;;;154.75;68.05;;;;;;;0.84;53.40;94982.91;5049836;28;20057;-78
2021/12/24 06:25:33;;;;;;;179.80;84.72;;;;;;;0.89;53.56;94980.63;5052548;28;20578;-78
2021/12/24 06:27:58;;;;;;;154.43;72.30;;;;;;;0.98;53.12;95007.81;5018180;28;20032;-77
2021/12/24 06:30:29;;;;;;;197.00;91.10;;;;;;;1.13;53.27;94990.72;5040745;28;20040;-78
2021/12/24 06:32:54;;;;;;;161.93;73.28;;;;;;;1.25;52.56;95003.16;5007619;28;20575;-78
2021/12/24 06:35:20;;;;;;;115.20;56.03;;;;;;;1.29;52.54;95015.44;5020703;28;20082;-79
2021/12/24 06:37:45;;;;;;;93.90;44.15;;;;;;;1.35;52.01;95021.69;5036782;28;20033;-77
2021/12/24 06:40:11;;;;;;;92.50;39.65;;;;;;;1.39;52.61;95020.38;5035998;28;20033;-78
2021/12/24 06:42:36;;;;;;;77.47;39.00;;;;;;;1.37;52.41;95012.84;5037120;28;20125;-79
2021/12/24 06:45:02;;;;;;;86.40;40.38;;;;;;;1.39;52.33;95017.81;5055740;28;20294;-78
2021/12/24 06:47:30;;;;;;;76.68;37.78;;;;;;;1.55;52.61;95014.34;5019776;28;20089;-78
2021/12/24 06:49:56;;;;;;;76.55;37.20;;;;;;;1.66;51.84;95009.63;5035047;28;20029;-79
2021/12/24 06:52:21;;;;;;;73.07;37.75;;;;;;;1.74;51.78;95009.53;5020706;28;20035;-79
2021/12/24 06:54:47;;;;;;;68.47;35.80;;;;;;;1.82;51.44;95000.22;5018483;28;20040;-78
2021/12/24 06:57:15;;;;;;;87.43;41.55;;;;;;;1.93;50.60;95002.34;5019037;28;20063;-77
2021/12/24 07:02:14;;;;;;;120.05;58.83;;;;;;;2.13;51.32;95002.66;5016846;22;20058;-79
2021/12/24 07:04:39;;;;;;;145.50;60.75;;;;;;;2.21;50.75;95000.78;5012943;28;20030;-76
2021/12/24 07:07:05;;;;;;;88.25;42.53;;;;;;;2.29;49.48;95003.28;5001822;28;20029;-78
2021/12/24 07:09:30;;;;;;;82.40;38.08;;;;;;;2.37;49.73;95000.63;5012138;28;20045;-77
2021/12/24 07:11:56;;;;;;;70.15;31.58;;;;;;;2.37;48.99;95000.63;4979604;28;20073;-79
2021/12/24 07:14:24;;;;;;;58.20;29.35;;;;;;;2.25;48.86;94990.97;5002586;28;20042;-79
2021/12/24 07:16:50;;;;;;;52.58;28.25;;;;;;;2.23;49.25;94993.72;5018493;28;20042;-80
2021/12/24 07:19:16;;;;;;;60.28;30.70;;;;;;;2.31;49.11;94985.16;4982810;28;20041;-81
2021/12/24 07:21:41;;;;;;;62.17;29.70;;;;;;;2.34;49.14;94995.06;5062560;22;20417;-78
2021/12/24 07:24:07;;;;;;;55.97;30.15;;;;;;;2.40;48.60;94995.13;5046789;28;20041;-79
2021/12/24 07:26:33;;;;;;;53.10;25.95;;;;;;;2.49;48.43;95002.78;5044536;28;20034;-78
2021/12/24 07:28:58;;;;;;;55.05;27.90;;;;;;;2.48;48.13;94993.47;5046866;28;20040;-78
2021/12/24 07:31:23;;;;;;;51.15;27.08;;;;;;;2.40;48.64;94996.91;5046239;28;20018;-78
2021/12/24 07:33:49;;;;;;;50.25;26.30;;;;;;;2.44;48.20;95002.47;5027802;28;20029;-78
2021/12/24 07:36:14;;;;;;;55.67;25.98;;;;;;;2.57;47.91;95000.09;5044379;28;20045;-78
2021/12/24 07:38:46;;;;;;;60.65;24.85;;;;;;;2.61;47.72;94994.44;5044709;28;20034;-78
2021/12/24 07:41:14;;;;;;;49.65;26.45;;;;;;;2.73;47.82;94989.66;4997401;28;20053;-79
2021/12/24 07:43:40;;;;;;;72.93;34.08;;;;;;;2.71;48.54;94992.41;5013768;28;20037;-82
2021/12/24 07:46:05;;;;;;;53.25;27.20;;;;;;;2.90;47.48;94991.03;5031884;28;20024;-79
2021/12/24 07:48:32;;;;;;;47.10;24.08;;;;;;;2.95;46.64;94990.53;5031561;28;20036;-80
2021/12/24 07:53:24;;;;;;;54.55;25.08;;;;;;;3.29;45.87;94995.03;5028770;28;20041;-78
2021/12/24 07:55:50;;;;;;;60.40;25.73;;;;;;;3.38;46.46;94988.78;5015175;28;20067;-78
2021/12/24 07:58:17;;;;;;;62.20;25.00;;;;;;;3.43;45.73;94991.63;5024743;28;20022;-78
2021/12/24 08:00:43;;;;;;;50.80;26.10;;;;;;;3.60;45.47;94997.31;5052664;28;20033;-79
2021/12/24 08:03:08;;;;;;;49.25;23.15;;;;;;;3.72;45.10;94992.47;5045951;28;20579;-78
2021/12/24 08:05:38;;;;;;;49.90;25.45;;;;;;;3.85;44.29;95000.28;5053896;28;20038;-79
2021/12/24 08:08:04;;;;;;;47.72;25.70;;;;;;;4.02;43.43;94986.19;5019583;28;20109;-79
2021/12/24 08:10:31;;;;;;;59.03;25.92;;;;;;;4.07;44.47;94978.72;5027338;28;20106;-77
2021/12/24 08:12:56;;;;;;;49.42;24.17;;;;;;;4.02;43.37;94991.31;5007650;28;20029;-78
2021/12/24 08:15:22;;;;;;;48.17;24.42;;;;;;;3.99;44.05;95002.00;5009416;28;20059;-78
2021/12/24 08:17:47;;;;;;;47.60;24.23;;;;;;;3.77;43.77;94997.88;5028535;28;20048;-78
2021/12/24 08:20:14;;;;;;;58.13;24.85;;;;;;;3.83;43.96;94979.09;5028017;28;20432;-78
2021/12/24 08:22:39;;;;;;;45.97;22.92;;;;;;;3.92;43.39;94981.38;5010005;28;20032;-78
2021/12/24 08:25:06;;;;;;;34.35;20.02;;;;;;;3.90;43.10;94967.91;5027384;28;20041;-78
2021/12/24 08:27:32;;;;;;;43.85;22.23;;;;;;;3.96;44.15;94968.13;5010409;28;20111;-79
2021/12/24 08:29:58;;;;;;;45.78;25.73;;;;;;;4.07;44.05;94960.69;5027645;28;20037;-78
2021/12/24 08:32:23;;;;;;;46.05;23.80;;;;;;;4.19;43.49;94951.47;5008161;28;20037;-78
2021/12/24 08:34:51;;;;;;;41.85;22.55;;;;;;;4.29;43.75;94940.03;5010117;28;20048;-78
2021/12/24 08:37:20;;;;;;;47.88;23.00;;;;;;;4.41;43.00;94949.63;5010407;28;20037;-78
2021/12/24 08:39:52;;;;;;;39.40;21.42;;;;;;;4.53;42.73;94927.47;5011041;28;20036;-79
2021/12/24 08:42:17;;;;;;;31.05;19.80;;;;;;;4.69;42.63;94926.34;5044825;28;20037;-79
2021/12/24 08:44:43;;;;;;;36.78;19.42;;;;;;;4.74;42.34;94936.09;5045032;28;20045;-78
2021/12/24 08:47:08;;;;;;;36.55;20.45;;;;;;;4.81;42.35;94924.81;5043761;28;20049;-79
2021/12/24 08:49:34;;;;;;;39.63;21.85;;;;;;;4.93;42.24;94940.53;5011485;28;20033;-79
2021/12/24 08:51:59;;;;;;;45.97;19.15;;;;;;;4.77;42.48;94954.53;5026129;28;20034;-78
2021/12/24 08:54:25;;;;;;;38.63;18.73;;;;;;;4.96;42.26;94940.13;5043021;28;20490;-78
2021/12/24 08:56:54;;;;;;;48.15;19.70;;;;;;;4.92;42.35;94944.09;5009686;28;20044;-78
2021/12/24 08:59:19;;;;;;;35.20;18.83;;;;;;;4.97;42.40;94953.81;5044417;28;20116;-83
2021/12/24 09:01:45;;;;;;;35.40;19.65;;;;;;;4.99;41.75;94938.94;5043810;28;20141;-78
2021/12/24 09:04:11;;;;;;;39.70;20.27;;;;;;;5.13;41.56;94935.44;5043356;28;20104;-78
2021/12/24 09:06:36;;;;;;;34.55;19.60;;;;;;;5.15;41.83;94930.88;5047620;28;20040;-78
2021/12/24 09:09:06;;;;;;;36.90;20.02;;;;;;;5.21;42.09;94930.09;5028067;28;20528;-78
2021/12/24 09:11:35;;;;;;;31.90;19.80;;;;;;;5.36;41.41;94938.44;5026360;28;20040;-78
2021/12/24 09:14:01;;;;;;;52.35;22.30;;;;;;;5.25;41.59;94931.28;5007683;28;20504;-79
2021/12/24 09:16:26;;;;;;;37.50;21.10;;;;;;;5.30;41.13;94938.44;5009160;28;20116;-78
2021/12/24 09:18:59;;;;;;;37.78;21.95;;;;;;;5.34;41.09;94919.78;5009300;28;20063;-79
2021/12/24 09:21:28;;;;;;;39.45;20.98;;;;;;;5.29;41.75;94917.00;5025338;28;20080;-78
2021/12/24 09:23:56;;;;;;;42.55;20.60;;;;;;;5.36;41.49;94914.44;5043028;28;20060;-78
2021/12/24 09:26:29;;;;;;;38.85;22.65;;;;;;;5.38;41.83;94922.78;5045327;28;20036;-78
2021/12/24 09:28:57;;;;;;;38.92;23.35;;;;;;;5.34;41.92;94903.53;5045387;28;20040;-78
2021/12/24 09:31:23;;;;;;;41.72;22.45;;;;;;;5.39;42.17;94907.13;5028655;28;20037;-78
2021/12/24 09:33:49;;;;;;;47.28;23.15;;;;;;;5.52;42.49;94902.94;5062611;28;20037;-78
2021/12/24 09:36:20;;;;;;;42.00;22.33;;;;;;;5.54;41.64;94903.56;5062340;28;20037;-78
2021/12/24 09:38:45;;;;;;;44.53;23.75;;;;;;;5.59;41.96;94888.28;5060837;28;20393;-78
2021/12/24 09:41:11;;;;;;;44.60;24.08;;;;;;;5.56;42.08;94880.94;5063145;28;20056;-78
2021/12/24 09:43:36;;;;;;;44.97;23.85;;;;;;;5.54;41.63;94877.78;5044497;28;20048;-79
2021/12/24 09:46:02;;;;;;;43.38;22.67;;;;;;;5.49;42.62;94870.59;5009263;28;20033;-78
2021/12/24 09:48:27;;;;;;;61.92;22.98;;;;;;;5.47;42.80;94887.28;5062647;28;20036;-78
2021/12/24 09:50:52;;;;;;;46.13;24.95;;;;;;;5.45;42.52;94882.31;5062109;28;20029;-78
2021/12/24 09:53:18;;;;;;;41.92;24.17;;;;;;;5.41;42.44;94888.88;5062443;28;20029;-78
2021/12/24 09:55:43;;;;;;;54.10;24.95;;;;;;;5.47;43.10;94879.53;5045980;28;20065;-78
2021/12/24 09:58:09;;;;;;;44.38;26.13;;;;;;;5.56;42.32;94850.78;5029914;28;20028;-78
2021/12/24 10:00:34;;;;;;;49.42;24.38;;;;;;;5.69;42.85;94852.53;5045791;28;20116;-78
2021/12/24 10:03:00;;;;;;;41.00;24.77;;;;;;;5.55;42.80;94851.00;5045406;28;20032;-78
2021/12/24 10:05:30;;;;;;;55.13;25.60;;;;;;;5.67;42.43;94839.84;5026364;28;20037;-78
2021/12/24 10:08:01;;;;;;;49.85;25.80;;;;;;;5.76;43.02;94837.06;5046088;28;20040;-78
2021/12/24 10:10:29;;;;;;;46.03;24.15;;;;;;;5.86;42.29;94837.47;5037677;28;20037;-78
2021/12/24 10:12:55;;;;;;;44.88;24.65;;;;;;;5.92;42.11;94828.94;5085754;28;20018;-79
2021/12/24 10:15:20;;;;;;;50.50;24.50;;;;;;;5.86;42.34;94815.03;5045325;28;20084;-79
2021/12/24 10:17:46;;;;;;;42.17;23.58;;;;;;;5.98;42.22;94830.69;5065826;28;20033;-79
2021/12/24 10:20:16;;;;;;;48.10;23.50;;;;;;;5.98;42.12;94839.22;5019595;28;20047;-79
2021/12/24 10:22:55;;;;;;;42.40;23.15;;;;;;;6.06;42.52;94824.53;5036092;28;20036;-79
2021/12/24 10:25:27;;;;;;;43.75;24.02;;;;;;;6.08;42.61;94818.16;5058982;28;20060;-79
2021/12/24 10:27:53;;;;;;;46.58;24.40;;;;;;;6.12;42.64;94813.38;5064246;28;20021;-79
2021/12/24 10:30:29;;;;;;;51.53;24.15;;;;;;;6.14;42.20;94806.22;5073015;28;20048;-79
2021/12/24 10:32:56;;;;;;;51.92;25.95;;;;;;;6.07;42.67;94795.13;5079214;28;20029;-78
2021/12/24 10:35:35;;;;;;;49.67;24.23;;;;;;;6.04;43.17;94795.56;5068861;28;20040;-78
2021/12/24 10:38:13;;;;;;;43.30;25.15;;;;;;;6.26;42.86;94799.44;5073859;28;20060;-79
2021/12/24 10:40:51;;;;;;;50.22;22.88;;;;;;;6.28;42.61;94781.94;5063804;28;20045;-78
2021/12/24 10:43:28;;;;;;;37.65;23.20;;;;;;;6.41;42.62;94783.69;5066272;28;20037;-77
2021/12/24 10:46:26;;;;;;;49.35;20.52;;;;;;;6.62;42.56;94788.53;5084796;28;20050;-78
2021/12/24 10:49:07;;;;;;;41.00;21.27;;;;;;;6.77;42.36;94780.47;5019195;28;20052;-78
2021/12/24 10:52:27;;;;;;;43.22;20.83;;;;;;;6.91;42.52;94787.16;5033167;28;20080;-77
2021/12/24 10:54:29;;;;;;;33.40;21.33;;;;;;;7.03;42.40;94764.81;5022580;28;20048;-77
2021/12/24 10:57:18;;;;;;;44.63;22.45;;;;;;;7.20;41.80;94765.06;5042132;28;20047;-77
2021/12/24 10:59:45;;;;;;;46.83;20.50;;;;;;;7.28;41.64;94753.66;5043538;28;20029;-77
2021/12/24 11:02:11;;;;;;;35.30;21.15;;;;;;;7.39;41.88;94742.63;5061699;28;20049;-77
2021/12/24 11:04:37;;;;;;;45.85;23.58;;;;;;;7.51;42.01;94740.91;5060446;28;20070;-78
2021/12/24 11:07:02;;;;;;;61.40;31.35;;;;;;;7.60;42.70;94733.66;5043472;28;20468;-77
2021/12/24 11:09:28;;;;;;;64.43;18.45;;;;;;;7.70;44.47;94724.38;5044640;28;20419;-77
2021/12/24 11:11:55;;;;;;;48.70;18.50;;;;;;;7.85;44.91;94725.84;5062717;28;20460;-78
2021/12/24 11:14:21;;;;;;;29.98;13.20;;;;;;;7.98;45.01;94720.50;5027991;28;20029;-78
2021/12/24 11:16:47;;;;;;;41.22;11.30;;;;;;;8.11;43.92;94715.16;5044067;28;20408;-77
2021/12/24 11:19:12;;;;;;;29.98;13.88;;;;;;;8.19;43.95;94725.22;5062250;28;20029;-76
2021/12/24 11:21:38;;;;;;;35.50;16.48;;;;;;;8.26;43.89;94702.59;5028911;28;20487;-78
2021/12/24 11:24:04;;;;;;;34.33;14.73;;;;;;;8.32;43.89;94701.75;5044458;28;20521;-78
2021/12/24 11:26:33;;;;;;;34.22;15.10;;;;;;;8.39;43.53;94697.28;5066021;28;20033;-77
2021/12/24 11:28:58;;;;;;;42.40;17.73;;;;;;;8.54;43.36;94693.50;5045165;28;20497;-77
2021/12/24 11:31:28;;;;;;;29.45;12.68;;;;;;;8.60;42.98;94698.56;5043328;28;20506;-78
2021/12/24 11:33:54;;;;;;;32.40;15.60;;;;;;;8.62;42.98;94695.75;5043752;28;20045;-77
2021/12/24 11:36:21;;;;;;;41.90;15.75;;;;;;;8.66;43.27;94694.31;5042730;28;20024;-76
2021/12/24 11:38:53;;;;;;;43.40;15.65;;;;;;;8.74;42.75;94701.75;5062925;28;20575;-78
2021/12/24 11:41:20;;;;;;;20.05;12.40;;;;;;;8.64;43.13;94696.34;5065751;28;20025;-78
2021/12/24 11:43:48;;;;;;;28.48;13.80;;;;;;;8.73;42.59;94695.78;5047988;28;20037;-79
2021/12/24 11:46:16;;;;;;;20.02;11.75;;;;;;;8.84;42.38;94712.38;5010614;28;20484;-76
2021/12/24 11:48:42;;;;;;;18.17;9.88;;;;;;;8.95;42.22;94703.03;5062206;28;20043;-77
2021/12/24 11:51:22;;;;;;;30.48;11.95;;;;;;;9.06;42.19;94704.06;5045510;28;20503;-78
2021/12/24 11:53:47;;;;;;;21.33;7.07;;;;;;;9.07;41.69;94696.03;5044709;28;20500;-77
2021/12/24 11:56:15;;;;;;;23.05;10.00;;;;;;;9.12;41.46;94705.78;5041306;28;20109;-77
2021/12/24 11:58:50;;;;;;;13.55;6.00;;;;;;;9.07;41.98;94692.66;5037891;28;20032;-78
2021/12/24 12:01:16;;;;;;;18.25;8.70;;;;;;;9.06;41.48;94691.09;5042971;28;20037;-78
2021/12/24 12:03:55;;;;;;;19.08;9.05;;;;;;;9.06;42.34;94685.91;5026184;28;20131;-77
2021/12/24 12:06:25;;;;;;;26.33;12.13;;;;;;;9.02;42.17;94699.31;5026111;28;20041;-77
2021/12/24 12:08:55;;;;;;;35.15;14.75;;;;;;;9.06;42.25;94691.09;5060250;28;20437;-77
2021/12/24 12:11:32;;;;;;;52.03;16.60;;;;;;;9.12;42.24;94692.81;5060052;28;20103;-77
2021/12/24 12:14:03;;;;;;;30.98;14.93;;;;;;;9.13;42.42;94694.38;5041144;28;20036;-78
2021/12/24 12:16:47;;;;;;;34.88;17.48;;;;;;;9.16;42.04;94691.31;5025209;28;20080;-78
2021/12/24 12:19:23;;;;;;;30.58;14.60;;;;;;;9.16;41.80;94681.75;5060458;28;20071;-78
2021/12/24 12:22:14;;;;;;;24.08;12.18;;;;;;;9.12;42.34;94682.41;5059349;28;20028;-78
2021/12/24 12:25:06;;;;;;;29.52;13.73;;;;;;;9.13;41.87;94676.22;5041642;28;20122;-79
2021/12/24 12:27:44;;;;;;;21.23;9.68;;;;;;;9.11;42.30;94667.84;5035923;28;20049;-77
2021/12/24 12:30:26;;;;;;;25.45;11.75;;;;;;;9.03;42.56;94671.59;5024679;28;20036;-78
2021/12/24 12:32:53;;;;;;;16.97;9.83;;;;;;;9.01;42.25;94673.63;5043714;28;20431;-78
2021/12/24 12:35:19;;;;;;;16.33;10.30;;;;;;;9.05;42.40;94672.13;5042982;28;20291;-78
2021/12/24 12:37:52;;;;;;;23.02;12.13;;;;;;;9.12;42.26;94665.06;5043016;28;20040;-82
2021/12/24 12:40:17;;;;;;;13.60;9.30;;;;;;;9.16;41.61;94649.81;5068981;28;20115;-80
2021/12/24 12:42:51;;;;;;;26.38;12.50;;;;;;;9.21;42.07;94652.50;5069186;28;20036;-80
2021/12/24 12:45:17;;;;;;;24.77;8.65;;;;;;;9.18;41.46;94632.22;5069301;28;20032;-79
2021/12/24 12:47:57;;;;;;;27.77;9.32;;;;;;;9.17;41.50;94633.25;5054491;23;21306;-77
2021/12/24 12:50:23;;;;;;;31.98;13.10;;;;;;;9.08;42.27;94634.59;5052803;28;20052;-79
2021/12/24 12:52:48;;;;;;;36.45;11.52;;;;;;;9.11;42.72;94631.53;5048685;28;20491;-78
2021/12/24 12:55:27;;;;;;;23.23;8.25;;;;;;;9.14;42.83;94646.66;5040124;28;20041;-77
2021/12/24 12:57:52;;;;;;;24.45;9.88;;;;;;;9.20;42.55;94641.34;5021203;28;20051;-77
2021/12/24 13:00:23;;;;;;;28.40;12.13;;;;;;;9.21;42.26;94645.53;5031556;28;20033;-78
2021/12/24 13:03:06;;;;;;;14.30;8.85;;;;;;;9.20;42.59;94641.34;5007951;28;20440;-78
2021/12/24 13:05:34;;;;;;;21.80;10.48;;;;;;;9.22;42.26;94643.72;5039621;28;20469;-78
2021/12/24 13:08:13;;;;;;;34.25;14.02;;;;;;;9.24;42.03;94636.50;5022072;28;20092;-78
2021/12/24 13:10:38;;;;;;;14.75;7.70;;;;;;;9.28;42.18;94630.63;5025989;28;20508;-78
2021/12/24 13:13:05;;;;;;;24.65;12.75;;;;;;;9.31;42.10;94624.19;5013113;28;20028;-78
2021/12/24 13:15:33;;;;;;;22.88;11.30;;;;;;;9.34;42.00;94623.75;5025437;28;20465;-79
2021/12/24 13:18:05;;;;;;;22.70;12.35;;;;;;;9.30;41.87;94614.84;4994267;28;20033;-80
2021/12/24 13:20:46;;;;;;;30.35;14.23;;;;;;;9.33;42.39;94616.97;5019001;28;20025;-78
2021/12/24 13:23:21;;;;;;;34.88;13.70;;;;;;;9.24;42.41;94629.50;5042380;28;20037;-79
2021/12/24 13:25:50;;;;;;;25.40;11.20;;;;;;;9.31;41.96;94621.59;5018733;28;20033;-78
2021/12/24 13:28:15;;;;;;;35.17;13.93;;;;;;;9.32;41.72;94625.78;5012468;28;20084;-77
2021/12/24 13:30:41;;;;;;;25.27;13.90;;;;;;;9.32;42.00;94625.78;4997113;28;20022;-79
2021/12/24 13:33:07;;;;;;;18.05;10.70;;;;;;;9.41;41.69;94632.19;4998133;28;20061;-80